createdAt,value
2018-08-30T00:02:27.298Z,99.90
2018-08-30T00:04:56.421Z,99.90
2018-08-30T00:07:25.552Z,99.90
2018-08-30T00:09:54.661Z,99.90
2018-08-30T00:12:23.786Z,99.90
2018-08-30T00:14:52.887Z,99.90
2018-08-30T00:17:22.010Z,99.90
2018-08-30T00:19:51.941Z,99.90
2018-08-30T00:22:21.065Z,99.90
2018-08-30T00:24:50.182Z,99.90
2018-08-30T00:27:19.294Z,99.90
2018-08-30T00:29:48.454Z,99.90
2018-08-30T00:32:17.618Z,99.90
2018-08-30T00:34:46.733Z,99.90
2018-08-30T00:37:15.853Z,99.90
2018-08-30T00:39:44.955Z,99.90
2018-08-30T00:42:15.174Z,99.90
2018-08-30T00:44:44.351Z,99.90
2018-08-30T00:47:19.246Z,99.90
2018-08-30T00:49:48.438Z,99.90
2018-08-30T00:52:17.705Z,99.90
2018-08-30T00:54:46.950Z,99.90
2018-08-30T00:57:17.346Z,99.90
2018-08-30T00:59:46.506Z,99.90
2018-08-30T01:02:15.630Z,99.90
2018-08-30T01:04:44.874Z,99.90
2018-08-30T01:07:14.004Z,99.90
2018-08-30T01:09:43.078Z,99.90
2018-08-30T01:12:12.486Z,99.90
2018-08-30T01:14:41.765Z,99.90
2018-08-30T01:17:11.245Z,99.90
2018-08-30T01:19:40.383Z,99.90
2018-08-30T01:22:09.514Z,99.90
2018-08-30T01:24:38.665Z,99.90
2018-08-30T01:27:07.814Z,99.90
2018-08-30T01:29:37.636Z,99.90
2018-08-30T01:32:07.395Z,99.90
2018-08-30T01:34:36.557Z,99.90
2018-08-30T01:37:05.882Z,99.90
2018-08-30T01:39:35.086Z,99.90
2018-08-30T01:42:04.811Z,99.90
2018-08-30T01:44:33.929Z,99.90
2018-08-30T01:47:03.549Z,99.90
2018-08-30T01:49:32.666Z,99.90
2018-08-30T01:52:01.866Z,99.90
2018-08-30T01:54:30.997Z,99.90
2018-08-30T01:57:00.419Z,99.90
2018-08-30T01:59:29.490Z,99.90
2018-08-30T02:01:58.596Z,99.90
2018-08-30T02:04:28.426Z,99.90
2018-08-30T02:06:57.638Z,99.90
2018-08-30T02:09:26.749Z,99.90
2018-08-30T02:11:55.830Z,99.90
2018-08-30T02:14:24.920Z,99.90
2018-08-30T02:16:54.018Z,99.90
2018-08-30T02:19:23.452Z,99.90
2018-08-30T02:21:52.521Z,99.90
2018-08-30T02:24:22.271Z,99.90
2018-08-30T02:26:51.778Z,99.90
2018-08-30T02:29:20.863Z,99.90
2018-08-30T02:31:49.990Z,99.90
2018-08-30T02:34:19.146Z,99.90
2018-08-30T02:36:48.315Z,99.90
2018-08-30T02:39:18.334Z,99.90
2018-08-30T02:41:47.793Z,99.90
2018-08-30T02:44:16.997Z,99.90
2018-08-30T02:46:46.148Z,99.90
2018-08-30T02:49:15.266Z,99.90
2018-08-30T02:51:44.385Z,99.90
2018-08-30T02:54:13.778Z,99.90
2018-08-30T02:56:43.090Z,99.90
2018-08-30T02:59:12.617Z,99.90
2018-08-30T03:01:41.705Z,99.90
2018-08-30T03:04:10.834Z,99.90
2018-08-30T03:06:39.945Z,99.90
2018-08-30T03:09:10.097Z,99.90
2018-08-30T03:11:39.224Z,99.90
2018-08-30T03:14:08.618Z,99.90
2018-08-30T03:16:37.710Z,99.90
2018-08-30T03:19:06.826Z,99.90
2018-08-30T03:21:36.101Z,99.90
2018-08-30T03:24:05.254Z,99.90
2018-08-30T03:26:34.425Z,99.90
2018-08-30T03:29:03.538Z,99.90
2018-08-30T03:31:32.648Z,99.90
2018-08-30T03:34:01.736Z,99.90
2018-08-30T03:36:30.830Z,99.90
2018-08-30T03:39:00.441Z,99.90
2018-08-30T03:41:30.305Z,99.90
2018-08-30T03:43:59.477Z,99.90
2018-08-30T03:46:28.843Z,99.90
2018-08-30T03:48:58.115Z,99.90
2018-08-30T03:51:27.349Z,99.90
2018-08-30T03:53:56.618Z,99.90
2018-08-30T03:56:25.930Z,99.90
2018-08-30T03:58:55.363Z,99.90
2018-08-30T04:01:24.485Z,99.90
2018-08-30T04:03:53.565Z,99.90
2018-08-30T04:06:22.694Z,99.90
2018-08-30T04:08:52.206Z,99.90
2018-08-30T04:11:21.325Z,99.90
2018-08-30T04:13:50.437Z,99.90
2018-08-30T04:16:19.541Z,99.90
2018-08-30T04:18:52.757Z,99.90
2018-08-30T04:21:21.890Z,99.90
2018-08-30T04:23:51.014Z,99.90
2018-08-30T04:26:20.824Z,99.90
2018-08-30T04:28:50.010Z,99.90
2018-08-30T04:31:19.156Z,99.90
2018-08-30T04:33:48.257Z,99.90
2018-08-30T04:36:17.382Z,99.90
2018-08-30T04:38:47.163Z,99.90
2018-08-30T04:41:17.173Z,99.90
2018-08-30T04:43:47.038Z,99.90
2018-08-30T04:46:16.725Z,99.90
2018-08-30T04:48:46.065Z,99.90
2018-08-30T04:51:15.401Z,99.90
2018-08-30T04:53:44.561Z,99.90
2018-08-30T04:56:13.661Z,99.90
2018-08-30T04:58:42.762Z,99.90
2018-08-30T05:01:12.389Z,99.90
2018-08-30T05:03:41.519Z,99.90
2018-08-30T05:06:10.587Z,99.90
2018-08-30T05:08:40.117Z,99.90
2018-08-30T05:11:09.801Z,99.90
2018-08-30T05:13:39.410Z,99.90
2018-08-30T05:16:08.502Z,99.90
2018-08-30T05:18:37.595Z,99.90
2018-08-30T05:21:06.721Z,99.90
2018-08-30T05:23:35.798Z,99.90
2018-08-30T05:26:05.782Z,99.90
2018-08-30T05:28:34.896Z,99.90
2018-08-30T05:31:04.002Z,99.90
2018-08-30T05:33:33.137Z,99.90
2018-08-30T05:36:02.911Z,99.90
2018-08-30T05:38:32.047Z,99.90
2018-08-30T05:41:02.718Z,99.90
2018-08-30T05:43:31.849Z,99.90
2018-08-30T05:46:01.405Z,99.90
2018-08-30T05:48:30.570Z,99.90
2018-08-30T05:50:59.718Z,99.90
2018-08-30T05:53:28.837Z,99.90
2018-08-30T05:55:57.965Z,99.90
2018-08-30T05:58:27.142Z,99.90
2018-08-30T06:00:56.278Z,99.90
2018-08-30T06:03:25.398Z,99.90
2018-08-30T06:05:55.379Z,99.90
2018-08-30T06:08:24.554Z,99.90
2018-08-30T06:10:53.626Z,99.90
2018-08-30T06:13:22.783Z,99.90
2018-08-30T06:15:51.874Z,99.90
2018-08-30T06:18:21.717Z,99.90
2018-08-30T06:20:50.893Z,99.90
2018-08-30T06:23:20.028Z,99.90
2018-08-30T06:25:49.141Z,99.90
2018-08-30T06:28:18.314Z,99.90
2018-08-30T06:30:47.414Z,99.90
2018-08-30T06:33:16.505Z,99.90
2018-08-30T06:35:45.643Z,99.90
2018-08-30T06:38:16.265Z,99.90
2018-08-30T06:40:45.410Z,99.90
2018-08-30T06:43:15.255Z,99.90
2018-08-30T06:45:48.027Z,99.90
2018-08-30T06:48:17.488Z,99.90
2018-08-30T06:50:46.875Z,99.90
2018-08-30T06:53:16.288Z,99.90
2018-08-30T06:55:45.410Z,99.90
2018-08-30T06:58:14.535Z,99.90
2018-08-30T07:00:43.650Z,99.90
2018-08-30T07:03:12.739Z,99.90
2018-08-30T07:05:42.041Z,99.90
2018-08-30T07:08:11.237Z,99.90
2018-08-30T07:10:40.463Z,99.90
2018-08-30T07:13:09.585Z,99.90
2018-08-30T07:15:38.719Z,99.90
2018-08-30T07:18:07.841Z,99.90
2018-08-30T07:20:37.731Z,99.90
2018-08-30T07:23:06.867Z,99.90
2018-08-30T07:25:36.112Z,99.90
2018-08-30T07:28:05.473Z,99.90
2018-08-30T07:30:34.637Z,99.90
2018-08-30T07:33:03.747Z,99.90
2018-08-30T07:35:32.883Z,99.90
2018-08-30T07:38:02.782Z,99.90
2018-08-30T07:40:31.877Z,99.90
2018-08-30T07:43:01.130Z,99.90
2018-08-30T07:45:31.510Z,99.90
2018-08-30T07:48:00.678Z,99.90
2018-08-30T07:50:29.853Z,99.90
2018-08-30T07:52:59.002Z,99.90
2018-08-30T07:55:28.461Z,99.90
2018-08-30T07:57:57.671Z,99.90
2018-08-30T08:00:26.789Z,99.90
2018-08-30T08:02:56.094Z,99.90
2018-08-30T08:05:25.218Z,99.90
2018-08-30T08:07:54.322Z,99.90
2018-08-30T08:10:23.485Z,99.90
2018-08-30T08:12:52.621Z,99.90
2018-08-30T08:15:21.731Z,99.90
2018-08-30T08:17:51.487Z,99.90
2018-08-30T08:20:20.610Z,99.90
2018-08-30T08:22:49.770Z,99.90
2018-08-30T08:25:18.966Z,99.90
2018-08-30T08:27:48.105Z,99.90
2018-08-30T08:30:17.245Z,99.90
2018-08-30T08:32:46.386Z,99.90
2018-08-30T08:35:15.490Z,99.90
2018-08-30T08:37:44.794Z,99.90
2018-08-30T08:40:14.109Z,99.90
2018-08-30T08:42:43.325Z,99.90
2018-08-30T08:45:12.704Z,99.90
2018-08-30T08:47:42.635Z,99.90
2018-08-30T08:50:11.719Z,99.90
2018-08-30T08:52:40.818Z,99.90
2018-08-30T08:55:09.929Z,99.90
2018-08-30T08:57:39.060Z,99.90
2018-08-30T09:00:08.173Z,99.90
2018-08-30T09:02:37.317Z,99.90
2018-08-30T09:05:07.647Z,99.90
2018-08-30T09:07:36.791Z,99.90
2018-08-30T09:10:06.896Z,99.90
2018-08-30T09:12:36.062Z,99.90
2018-08-30T09:15:05.281Z,99.90
2018-08-30T09:17:34.573Z,99.90
2018-08-30T09:20:03.754Z,99.90
2018-08-30T09:22:32.886Z,99.90
2018-08-30T09:25:02.823Z,99.90
2018-08-30T09:27:31.917Z,99.90
2018-08-30T09:30:01.012Z,99.90
2018-08-30T09:32:30.149Z,99.90
2018-08-30T09:34:59.453Z,99.90
2018-08-30T09:37:28.576Z,99.90
2018-08-30T09:39:57.714Z,99.90
2018-08-30T09:42:26.838Z,99.90
2018-08-30T09:44:56.009Z,99.90
2018-08-30T09:47:25.638Z,99.90
2018-08-30T09:49:55.777Z,99.90
2018-08-30T09:52:24.981Z,99.90
2018-08-30T09:54:54.141Z,99.90
2018-08-30T09:57:23.467Z,99.90
2018-08-30T09:59:52.845Z,99.90
2018-08-30T10:02:27.485Z,99.90
2018-08-30T10:04:56.824Z,99.90
2018-08-30T10:07:25.915Z,99.90
2018-08-30T10:09:55.009Z,99.90
2018-08-30T10:12:24.114Z,99.90
2018-08-30T10:14:53.276Z,99.90
2018-08-30T10:17:22.417Z,99.90
2018-08-30T10:19:52.082Z,99.90
2018-08-30T10:22:21.205Z,99.90
2018-08-30T10:24:50.362Z,99.90
2018-08-30T10:27:19.525Z,99.90
2018-08-30T10:29:48.630Z,99.90
2018-08-30T10:32:17.806Z,99.90
2018-08-30T10:34:47.628Z,99.90
2018-08-30T10:37:16.762Z,99.90
2018-08-30T10:39:45.906Z,99.90
2018-08-30T10:42:15.049Z,99.90
2018-08-30T10:44:44.750Z,98.50
2018-08-30T10:47:13.917Z,99.20
2018-08-30T10:49:43.909Z,99.90
2018-08-30T10:52:12.901Z,99.90
2018-08-30T10:54:42.096Z,99.90
2018-08-30T10:57:11.189Z,99.90
2018-08-30T10:59:40.302Z,99.90
2018-08-30T11:02:09.693Z,99.90
2018-08-30T11:04:38.916Z,99.90
2018-08-30T11:07:08.037Z,98.50
2018-08-30T11:09:37.140Z,97.80
2018-08-30T11:12:06.278Z,99.20
2018-08-30T11:14:35.366Z,99.40
2018-08-30T11:17:04.493Z,99.90
2018-08-30T11:19:33.827Z,98.80
2018-08-30T11:22:02.877Z,96.80
2018-08-30T11:24:31.988Z,95.50
2018-08-30T11:27:01.145Z,95.20
2018-08-30T11:29:30.226Z,96.10
2018-08-30T11:31:59.361Z,98.90
2018-08-30T11:34:29.190Z,99.80
2018-08-30T11:36:58.338Z,99.60
2018-08-30T11:39:27.441Z,99.90
2018-08-30T11:41:56.563Z,99.70
2018-08-30T11:44:25.690Z,96.60
2018-08-30T11:46:54.861Z,97.10
2018-08-30T11:49:24.323Z,95.90
2018-08-30T11:51:53.462Z,93.40
2018-08-30T11:54:22.795Z,93.40
2018-08-30T11:56:51.857Z,93.80
2018-08-30T11:59:22.206Z,93.60
2018-08-30T12:01:51.340Z,93.20
2018-08-30T12:04:20.534Z,93.80
2018-08-30T12:06:49.693Z,92.90
2018-08-30T12:09:18.796Z,93.10
2018-08-30T12:11:47.910Z,93.10
2018-08-30T12:14:17.026Z,93.90
2018-08-30T12:16:46.276Z,94.90
2018-08-30T12:19:15.387Z,94.60
2018-08-30T12:21:44.523Z,93.90
2018-08-30T12:24:13.648Z,93.20
2018-08-30T12:26:42.744Z,94.70
2018-08-30T12:29:11.916Z,95.00
2018-08-30T12:31:41.072Z,96.20
2018-08-30T12:34:10.241Z,96.90
2018-08-30T12:36:39.662Z,97.70
2018-08-30T12:39:11.295Z,97.30
2018-08-30T12:41:40.416Z,96.20
2018-08-30T12:44:09.624Z,95.40
2018-08-30T12:46:38.748Z,96.50
2018-08-30T12:49:07.860Z,97.50
2018-08-30T12:51:37.405Z,98.10
2018-08-30T12:54:06.603Z,97.90
2018-08-30T12:56:36.077Z,97.20
2018-08-30T12:59:10.379Z,97.50
2018-08-30T13:01:39.603Z,97.50
2018-08-30T13:04:09.054Z,97.40
2018-08-30T13:06:42.270Z,96.90
2018-08-30T13:09:11.713Z,96.50
2018-08-30T13:11:40.637Z,96.50
2018-08-30T13:14:09.703Z,95.60
2018-08-30T13:16:38.748Z,94.40
2018-08-30T13:19:08.774Z,94.00
2018-08-30T13:21:38.645Z,92.90
2018-08-30T13:24:07.764Z,93.30
2018-08-30T13:26:36.843Z,92.50
2018-08-30T13:29:06.010Z,92.30
2018-08-30T13:31:35.122Z,90.70
2018-08-30T13:34:04.660Z,90.70
2018-08-30T13:36:34.093Z,90.50
2018-08-30T13:39:03.158Z,90.10
2018-08-30T13:41:32.453Z,88.60
2018-08-30T13:44:01.414Z,86.30
2018-08-30T13:46:30.464Z,89.20
2018-08-30T13:49:00.294Z,91.10
2018-08-30T13:51:30.416Z,91.50
2018-08-30T13:53:59.533Z,91.10
2018-08-30T13:56:28.911Z,89.50
2018-08-30T13:58:58.034Z,87.70
2018-08-30T14:01:27.574Z,88.90
2018-08-30T14:03:56.080Z,90.20
2018-08-30T14:06:25.328Z,89.70
2018-08-30T14:08:54.517Z,90.00
2018-08-30T14:11:23.731Z,88.60
2018-08-30T14:13:52.845Z,88.80
2018-08-30T14:16:21.698Z,90.10
2018-08-30T14:18:51.201Z,91.30
2018-08-30T14:21:20.302Z,90.70
2018-08-30T14:23:49.410Z,89.90
2018-08-30T14:26:18.558Z,88.70
2018-08-30T14:28:47.733Z,88.80
2018-08-30T14:31:16.850Z,90.30
2018-08-30T14:33:45.967Z,90.40
2018-08-30T14:36:15.086Z,90.90
2018-08-30T14:38:44.296Z,92.40
2018-08-30T14:41:13.653Z,92.00
2018-08-30T14:43:42.605Z,92.00
2018-08-30T14:46:11.689Z,91.10
2018-08-30T14:48:40.839Z,90.40
2018-08-30T14:51:10.014Z,91.00
2018-08-30T14:53:39.318Z,90.50
2018-08-30T14:56:08.034Z,90.20
2018-08-30T14:58:37.198Z,90.70
2018-08-30T15:01:06.426Z,90.60
2018-08-30T15:03:35.590Z,89.10
2018-08-30T15:06:04.785Z,88.80
2018-08-30T15:08:33.963Z,86.60
2018-08-30T15:11:03.743Z,86.50
2018-08-30T15:13:32.844Z,86.20
2018-08-30T15:16:01.982Z,88.70
2018-08-30T15:18:31.078Z,90.10
2018-08-30T15:21:00.194Z,91.00
2018-08-30T15:23:29.470Z,91.80
2018-08-30T15:25:58.573Z,91.50
2018-08-30T15:28:27.677Z,91.30
2018-08-30T15:30:56.837Z,90.80
2018-08-30T15:33:25.953Z,90.50
2018-08-30T15:35:55.277Z,90.60
2018-08-30T15:38:24.454Z,91.00
2018-08-30T15:40:54.134Z,91.80
2018-08-30T15:43:23.271Z,91.90
2018-08-30T15:45:52.413Z,92.90
2018-08-30T15:48:21.654Z,93.80
2018-08-30T15:50:50.754Z,93.80
2018-08-30T15:53:19.998Z,93.70
2018-08-30T15:55:49.558Z,93.00
2018-08-30T15:58:18.727Z,92.40
2018-08-30T16:00:47.871Z,92.70
2018-08-30T16:03:16.997Z,93.70
2018-08-30T16:05:46.130Z,94.20
2018-08-30T16:08:15.626Z,94.80
2018-08-30T16:10:44.738Z,95.40
2018-08-30T16:13:13.936Z,95.70
2018-08-30T16:15:43.007Z,95.90
2018-08-30T16:18:12.293Z,95.80
2018-08-30T16:20:41.256Z,95.80
2018-08-30T16:23:29.623Z,96.10
2018-08-30T16:25:58.702Z,96.20
2018-08-30T16:28:28.830Z,96.00
2018-08-30T16:30:58.336Z,96.20
2018-08-30T16:33:27.834Z,96.20
2018-08-30T16:35:56.952Z,96.50
2018-08-30T16:38:26.179Z,97.20
2018-08-30T16:40:55.698Z,98.60
2018-08-30T16:43:24.983Z,99.30
2018-08-30T16:45:53.941Z,99.90
2018-08-30T16:48:23.059Z,99.90
2018-08-30T16:50:52.223Z,99.90
2018-08-30T16:53:21.413Z,99.90
2018-08-30T16:55:50.575Z,99.90
2018-08-30T16:58:19.859Z,99.90
2018-08-30T17:00:49.076Z,99.90
2018-08-30T17:03:18.297Z,99.90
2018-08-30T17:05:48.138Z,99.90
2018-08-30T17:08:17.247Z,99.90
2018-08-30T17:10:46.413Z,99.90
2018-08-30T17:13:15.609Z,99.90
2018-08-30T17:15:44.770Z,99.90
2018-08-30T17:18:13.877Z,99.90
2018-08-30T17:20:46.825Z,99.90
2018-08-30T17:23:15.574Z,99.90
2018-08-30T17:25:45.031Z,99.90
2018-08-30T17:28:14.213Z,99.90
2018-08-30T17:30:43.781Z,99.90
2018-08-30T17:33:13.084Z,99.90
2018-08-30T17:35:42.216Z,99.90
2018-08-30T17:38:11.516Z,99.90
2018-08-30T17:40:40.618Z,99.90
2018-08-30T17:43:09.825Z,99.90
2018-08-30T17:45:38.878Z,99.90
2018-08-30T17:48:08.006Z,99.90
2018-08-30T17:50:37.889Z,99.90
2018-08-30T17:53:06.917Z,99.90
2018-08-30T17:55:36.010Z,99.90
2018-08-30T17:58:05.488Z,99.90
2018-08-30T18:00:35.061Z,99.90
2018-08-30T18:03:04.611Z,99.90
2018-08-30T18:05:33.664Z,99.90
2018-08-30T18:08:03.626Z,99.90
2018-08-30T18:10:39.461Z,99.90
2018-08-30T18:13:08.617Z,99.90
2018-08-30T18:15:37.781Z,99.90
2018-08-30T18:18:07.000Z,99.90
2018-08-30T18:20:36.029Z,99.90
2018-08-30T18:23:05.260Z,99.90
2018-08-30T18:25:34.469Z,99.90
2018-08-30T18:28:04.069Z,99.90
2018-08-30T18:30:33.195Z,99.90
2018-08-30T18:33:02.314Z,99.90
2018-08-30T18:35:31.445Z,99.90
2018-08-30T18:38:00.545Z,99.90
2018-08-30T18:40:29.657Z,99.90
2018-08-30T18:42:58.788Z,99.90
2018-08-30T18:45:27.951Z,99.90
2018-08-30T18:47:58.159Z,99.90
2018-08-30T18:50:27.266Z,99.90
2018-08-30T18:52:56.595Z,99.90
2018-08-30T18:55:25.731Z,99.90
2018-08-30T18:57:54.844Z,99.90
2018-08-30T19:00:24.813Z,99.90
2018-08-30T19:02:54.659Z,99.90
2018-08-30T19:05:23.769Z,99.90
2018-08-30T19:07:52.941Z,99.90
2018-08-30T19:10:22.064Z,99.90
2018-08-30T19:12:51.190Z,99.90
2018-08-30T19:15:25.664Z,99.90
2018-08-30T19:18:00.202Z,99.90
2018-08-30T19:20:29.382Z,99.90
2018-08-30T19:22:58.470Z,99.90
2018-08-30T19:25:29.502Z,99.90
2018-08-30T19:27:58.638Z,99.90
2018-08-30T19:30:30.050Z,99.90
2018-08-30T19:33:00.085Z,99.90
2018-08-30T19:35:34.442Z,99.90
2018-08-30T19:38:03.626Z,99.90
2018-08-30T19:40:38.061Z,99.90
2018-08-30T19:43:07.234Z,99.90
2018-08-30T19:45:36.329Z,99.90
2018-08-30T19:48:05.477Z,99.90
2018-08-30T19:50:34.596Z,99.90
2018-08-30T19:53:03.715Z,99.90
2018-08-30T19:55:32.829Z,99.90
2018-08-30T19:58:02.645Z,99.90
2018-08-30T20:00:31.819Z,99.90
2018-08-30T20:03:01.571Z,99.90
2018-08-30T20:05:30.840Z,99.90
2018-08-30T20:08:00.319Z,99.90
2018-08-30T20:10:29.231Z,99.90
2018-08-30T20:12:58.395Z,99.90
2018-08-30T20:15:27.558Z,99.90
2018-08-30T20:17:56.743Z,99.90
2018-08-30T20:20:25.878Z,99.90
2018-08-30T20:22:55.073Z,99.90
2018-08-30T20:25:24.248Z,99.90
2018-08-30T20:27:53.441Z,99.90
2018-08-30T20:30:22.554Z,99.90
2018-08-30T20:32:51.667Z,99.90
2018-08-30T20:35:20.773Z,99.90
2018-08-30T20:37:50.661Z,99.90
2018-08-30T20:40:19.878Z,99.90
2018-08-30T20:42:48.990Z,99.90
2018-08-30T20:45:18.537Z,99.90
2018-08-30T20:47:47.722Z,99.90
2018-08-30T20:50:16.866Z,99.90
2018-08-30T20:52:45.982Z,99.90
2018-08-30T20:55:15.128Z,99.90
2018-08-30T20:57:44.238Z,99.90
2018-08-30T21:00:13.411Z,99.90
2018-08-30T21:02:42.514Z,99.90
2018-08-30T21:05:13.052Z,99.90
2018-08-30T21:07:42.189Z,99.90
2018-08-30T21:10:11.282Z,99.90
2018-08-30T21:12:40.439Z,99.90
2018-08-30T21:15:09.631Z,99.90
2018-08-30T21:17:38.910Z,99.90
2018-08-30T21:20:08.762Z,99.90
2018-08-30T21:22:37.945Z,99.90
2018-08-30T21:25:07.341Z,99.90
2018-08-30T21:27:36.556Z,99.90
2018-08-30T21:30:06.494Z,99.90
2018-08-30T21:32:35.675Z,99.90
2018-08-30T21:35:04.842Z,99.90
2018-08-30T21:37:33.990Z,99.90
2018-08-30T21:40:03.147Z,99.90
2018-08-30T21:42:32.254Z,99.90
2018-08-30T21:45:01.425Z,99.90
2018-08-30T21:47:30.524Z,99.90
2018-08-30T21:50:00.102Z,99.90
2018-08-30T21:52:29.421Z,99.90
2018-08-30T21:54:58.559Z,99.90
2018-08-30T21:57:27.663Z,99.90
2018-08-30T21:59:56.854Z,99.90
2018-08-30T22:02:26.082Z,99.90
2018-08-30T22:04:55.497Z,99.90
2018-08-30T22:07:24.798Z,99.90
2018-08-30T22:09:53.941Z,99.90
2018-08-30T22:12:23.021Z,99.90
2018-08-30T22:14:52.119Z,99.90
2018-08-30T22:17:21.237Z,99.90
2018-08-30T22:19:50.375Z,99.90
2018-08-30T22:22:19.485Z,99.90
2018-08-30T22:24:48.573Z,99.90
2018-08-30T22:27:17.733Z,99.90
2018-08-30T22:29:47.545Z,99.90
2018-08-30T22:32:16.675Z,99.90
2018-08-30T22:34:45.866Z,99.90
2018-08-30T22:37:15.614Z,99.90
2018-08-30T22:39:44.750Z,99.90
2018-08-30T22:42:13.881Z,99.90
2018-08-30T22:44:43.403Z,99.90
2018-08-30T22:47:12.756Z,99.90
2018-08-30T22:49:41.939Z,99.90
2018-08-30T22:52:11.085Z,99.90
2018-08-30T22:54:40.217Z,99.90
2018-08-30T22:57:09.357Z,99.90
2018-08-30T22:59:38.505Z,99.90
2018-08-30T23:02:07.638Z,99.90
2018-08-30T23:04:37.400Z,99.90
2018-08-30T23:07:07.328Z,99.90
2018-08-30T23:09:36.649Z,99.90
2018-08-30T23:12:06.087Z,99.90
2018-08-30T23:14:35.218Z,99.90
2018-08-30T23:17:04.454Z,99.90
2018-08-30T23:19:33.794Z,99.90
2018-08-30T23:22:02.916Z,99.90
2018-08-30T23:24:32.026Z,99.90
2018-08-30T23:27:01.157Z,99.90
2018-08-30T23:29:30.278Z,99.90
2018-08-30T23:31:59.409Z,99.90
2018-08-30T23:34:28.560Z,99.90
2018-08-30T23:36:57.766Z,99.90
2018-08-30T23:39:27.060Z,99.90
2018-08-30T23:41:56.257Z,99.90
2018-08-30T23:44:26.170Z,99.90
2018-08-30T23:46:55.289Z,99.90
2018-08-30T23:49:24.422Z,99.90
2018-08-30T23:51:54.338Z,99.90
2018-08-30T23:54:23.466Z,99.90
2018-08-30T23:56:52.705Z,99.90
2018-08-30T23:59:39.534Z,99.90
